createdAt,value
2022-10-29T00:00:14.731Z,6.20
2022-10-29T00:01:14.774Z,6.70
2022-10-29T00:02:14.694Z,6.70
2022-10-29T00:03:14.779Z,7.20
2022-10-29T00:04:14.695Z,6.90
2022-10-29T00:05:14.675Z,6.30
2022-10-29T00:06:14.674Z,6.90
2022-10-29T00:07:14.641Z,6.70
2022-10-29T00:08:14.629Z,6.80
2022-10-29T00:09:14.600Z,6.70
2022-10-29T00:10:14.596Z,6.20
2022-10-29T00:11:14.619Z,6.20
2022-10-29T00:12:14.563Z,5.60
2022-10-29T00:13:14.576Z,6.40
2022-10-29T00:14:14.541Z,6.40
2022-10-29T00:15:14.531Z,6.10
2022-10-29T00:16:14.522Z,6.50
2022-10-29T00:17:14.524Z,6.50
2022-10-29T00:18:14.489Z,7.10
2022-10-29T00:19:14.493Z,5.70
2022-10-29T00:20:14.468Z,6.10
2022-10-29T00:21:14.465Z,6.30
2022-10-29T00:22:14.454Z,7.30
2022-10-29T00:23:14.434Z,7.10
2022-10-29T00:24:14.425Z,6.70
2022-10-29T00:25:14.426Z,7.00
2022-10-29T00:26:14.385Z,7.20
2022-10-29T00:27:14.374Z,6.50
2022-10-29T00:28:14.394Z,7.10
2022-10-29T00:29:14.367Z,7.50
2022-10-29T00:30:14.352Z,7.80
2022-10-29T00:31:14.313Z,8.20
2022-10-29T00:32:14.452Z,8.30
2022-10-29T00:33:14.361Z,6.40
2022-10-29T00:34:14.293Z,7.00
2022-10-29T00:35:14.258Z,6.40
2022-10-29T00:36:14.252Z,6.30
2022-10-29T00:37:14.254Z,6.00
2022-10-29T00:38:14.223Z,5.90
2022-10-29T00:39:14.235Z,5.40
2022-10-29T00:40:14.207Z,6.10
2022-10-29T00:41:14.184Z,5.80
2022-10-29T00:42:14.291Z,5.90
2022-10-29T00:43:14.156Z,6.20
2022-10-29T00:44:14.168Z,5.80
2022-10-29T00:45:14.144Z,5.60
2022-10-29T00:46:14.134Z,5.70
2022-10-29T00:47:14.114Z,5.50
2022-10-29T00:48:14.095Z,5.60
2022-10-29T00:49:14.077Z,5.60
2022-10-29T00:50:14.093Z,5.50
2022-10-29T00:51:14.059Z,5.80
2022-10-29T00:52:14.051Z,5.40
2022-10-29T00:53:14.025Z,5.10
2022-10-29T00:54:14.009Z,5.40
2022-10-29T00:55:14.001Z,5.70
2022-10-29T00:56:14.005Z,5.50
2022-10-29T00:57:14.008Z,5.80
2022-10-29T00:58:13.967Z,6.90
2022-10-29T00:59:13.964Z,6.90
2022-10-29T01:00:13.932Z,6.00
2022-10-29T01:01:14.014Z,5.70
2022-10-29T01:02:13.992Z,6.30
2022-10-29T01:03:13.979Z,5.90
2022-10-29T01:04:13.939Z,5.70
2022-10-29T01:05:13.869Z,5.50
2022-10-29T01:06:13.869Z,6.00
2022-10-29T01:07:13.855Z,5.50
2022-10-29T01:08:13.854Z,6.10
2022-10-29T01:09:13.805Z,6.00
2022-10-29T01:10:13.838Z,5.10
2022-10-29T01:11:13.796Z,5.90
2022-10-29T01:12:13.775Z,6.50
2022-10-29T01:13:13.841Z,6.10
2022-10-29T01:14:13.760Z,5.90
2022-10-29T01:15:13.759Z,5.70
2022-10-29T01:16:13.742Z,5.50
2022-10-29T01:17:14.152Z,6.10
2022-10-29T01:18:13.703Z,5.90
2022-10-29T01:19:13.755Z,5.60
2022-10-29T01:20:13.672Z,5.50
2022-10-29T01:21:13.696Z,5.70
2022-10-29T01:22:13.646Z,5.00
2022-10-29T01:23:13.636Z,5.40
2022-10-29T01:24:13.641Z,4.80
2022-10-29T01:25:13.603Z,5.90
2022-10-29T01:26:13.614Z,5.90
2022-10-29T01:27:13.616Z,5.10
2022-10-29T01:28:13.569Z,6.20
2022-10-29T01:29:13.557Z,5.30
2022-10-29T01:30:13.557Z,4.90
2022-10-29T01:31:13.521Z,5.40
2022-10-29T01:32:13.534Z,5.70
2022-10-29T01:33:13.554Z,5.60
2022-10-29T01:34:13.484Z,5.90
2022-10-29T01:35:13.497Z,5.20
2022-10-29T01:36:13.458Z,5.60
2022-10-29T01:37:13.461Z,4.90
2022-10-29T01:38:13.483Z,5.90
2022-10-29T01:39:13.429Z,5.30
2022-10-29T01:40:13.402Z,5.40
2022-10-29T01:41:13.403Z,5.60
2022-10-29T01:42:13.380Z,5.30
2022-10-29T01:43:13.472Z,5.50
2022-10-29T01:44:13.361Z,6.40
2022-10-29T01:45:13.358Z,5.40
2022-10-29T01:46:13.325Z,5.90
2022-10-29T01:47:13.310Z,6.10
2022-10-29T01:48:13.304Z,5.40
2022-10-29T01:49:13.294Z,5.40
2022-10-29T01:50:13.299Z,5.50
2022-10-29T01:51:13.284Z,5.80
2022-10-29T01:52:13.238Z,5.20
2022-10-29T01:53:13.238Z,5.60
2022-10-29T01:54:13.223Z,4.80
2022-10-29T01:55:13.235Z,5.70
2022-10-29T01:56:13.206Z,5.50
2022-10-29T01:57:13.179Z,5.70
2022-10-29T01:58:13.219Z,5.50
2022-10-29T01:59:22.932Z,5.90
2022-10-29T02:00:13.208Z,6.10
2022-10-29T02:01:13.290Z,5.30
2022-10-29T02:02:13.148Z,6.00
2022-10-29T02:03:13.093Z,5.80
2022-10-29T02:04:13.080Z,6.10
2022-10-29T02:05:13.077Z,6.10
2022-10-29T02:06:13.086Z,5.70
2022-10-29T02:07:13.053Z,4.80
2022-10-29T02:08:13.030Z,5.50
2022-10-29T02:09:13.020Z,5.50
2022-10-29T02:10:13.026Z,5.50
2022-10-29T02:11:13.011Z,5.90
2022-10-29T02:12:13.013Z,6.10
2022-10-29T02:13:13.017Z,5.20
2022-10-29T02:14:12.951Z,5.00
2022-10-29T02:15:12.938Z,5.80
2022-10-29T02:16:12.928Z,4.70
2022-10-29T02:17:12.939Z,5.10
2022-10-29T02:18:12.895Z,5.80
2022-10-29T02:19:13.412Z,5.60
2022-10-29T02:20:12.884Z,5.60
2022-10-29T02:21:12.855Z,5.40
2022-10-29T02:22:12.875Z,5.50
2022-10-29T02:23:12.838Z,5.60
2022-10-29T02:24:12.809Z,5.10
2022-10-29T02:25:12.876Z,5.50
2022-10-29T02:26:12.798Z,5.00
2022-10-29T02:27:12.774Z,5.60
2022-10-29T02:28:12.816Z,5.10
2022-10-29T02:29:12.801Z,5.10
2022-10-29T02:30:12.746Z,5.50
2022-10-29T02:31:12.733Z,5.40
2022-10-29T02:32:12.714Z,5.40
2022-10-29T02:33:12.720Z,5.40
2022-10-29T02:34:12.708Z,6.10
2022-10-29T02:35:12.697Z,5.40
2022-10-29T02:36:12.674Z,5.50
2022-10-29T02:37:12.653Z,5.30
2022-10-29T02:38:12.640Z,5.80
2022-10-29T02:39:12.628Z,5.80
2022-10-29T02:40:12.630Z,6.00
2022-10-29T02:41:12.609Z,5.20
2022-10-29T02:42:12.597Z,5.60
2022-10-29T02:43:12.614Z,5.30
2022-10-29T02:44:12.588Z,5.00
2022-10-29T02:45:12.538Z,5.50
2022-10-29T02:46:12.555Z,5.30
2022-10-29T02:47:12.542Z,4.90
2022-10-29T02:48:12.496Z,5.70
2022-10-29T02:49:12.484Z,5.10
2022-10-29T02:50:12.491Z,5.40
2022-10-29T02:51:12.469Z,5.60
2022-10-29T02:52:12.483Z,5.00
2022-10-29T02:53:12.431Z,5.60
2022-10-29T02:54:12.431Z,5.00
2022-10-29T02:55:12.409Z,5.40
2022-10-29T02:56:12.402Z,5.00
2022-10-29T02:57:12.405Z,4.70
2022-10-29T02:58:12.437Z,4.90
2022-10-29T02:59:12.362Z,5.10
2022-10-29T03:00:12.348Z,4.30
2022-10-29T03:01:12.384Z,5.00
2022-10-29T03:02:12.440Z,4.70
2022-10-29T03:03:12.313Z,4.90
2022-10-29T03:04:12.300Z,4.90
2022-10-29T03:05:12.282Z,5.00
2022-10-29T03:06:12.274Z,4.20
2022-10-29T03:07:12.265Z,5.10
2022-10-29T03:08:12.255Z,4.90
2022-10-29T03:09:12.233Z,5.00
2022-10-29T03:10:12.226Z,4.70
2022-10-29T03:11:12.198Z,4.80
2022-10-29T03:12:12.193Z,4.80
2022-10-29T03:13:12.183Z,5.00
2022-10-29T03:14:12.181Z,4.70
2022-10-29T03:15:12.154Z,4.30
2022-10-29T03:16:12.168Z,4.50
2022-10-29T03:17:12.117Z,4.80
2022-10-29T03:18:12.109Z,4.70
2022-10-29T03:19:12.090Z,4.30
2022-10-29T03:20:12.080Z,4.70
2022-10-29T03:21:12.087Z,4.50
2022-10-29T03:22:12.068Z,4.40
2022-10-29T03:23:12.041Z,4.60
2022-10-29T03:24:12.038Z,4.70
2022-10-29T03:25:12.018Z,4.30
2022-10-29T03:26:12.029Z,4.40
2022-10-29T03:27:11.988Z,4.40
2022-10-29T03:28:11.986Z,3.90
2022-10-29T03:29:11.965Z,4.00
2022-10-29T03:30:11.964Z,4.20
2022-10-29T03:31:11.941Z,4.10
2022-10-29T03:32:11.953Z,4.20
2022-10-29T03:33:11.925Z,4.40
2022-10-29T03:34:11.903Z,5.00
2022-10-29T03:35:11.911Z,4.50
2022-10-29T03:36:11.930Z,4.30
2022-10-29T03:37:11.903Z,4.40
2022-10-29T03:38:11.869Z,4.70
2022-10-29T03:39:11.839Z,4.70
2022-10-29T03:40:11.814Z,4.90
2022-10-29T03:41:11.816Z,4.90
2022-10-29T03:42:11.804Z,4.90
2022-10-29T03:43:11.772Z,4.90
2022-10-29T03:44:11.787Z,4.70
2022-10-29T03:45:11.793Z,4.90
2022-10-29T03:46:11.739Z,4.80
2022-10-29T03:47:11.713Z,5.00
2022-10-29T03:48:11.715Z,4.80
2022-10-29T03:49:11.697Z,5.50
2022-10-29T03:50:11.714Z,4.50
2022-10-29T03:51:11.687Z,4.00
2022-10-29T03:52:11.727Z,5.10
2022-10-29T03:53:11.645Z,6.70
2022-10-29T03:54:11.631Z,7.70
2022-10-29T03:55:11.638Z,10.00
2022-10-29T03:56:11.611Z,5.60
2022-10-29T03:57:11.595Z,5.00
2022-10-29T03:58:11.611Z,4.30
2022-10-29T03:59:11.575Z,4.50
2022-10-29T04:00:11.552Z,4.40
2022-10-29T04:01:11.588Z,4.70
2022-10-29T04:02:11.800Z,4.10
2022-10-29T04:03:11.508Z,4.00
2022-10-29T04:04:11.492Z,3.60
2022-10-29T04:05:11.498Z,3.80
2022-10-29T04:06:11.496Z,4.30
2022-10-29T04:07:11.456Z,4.00
2022-10-29T04:08:11.449Z,4.10
2022-10-29T04:09:11.461Z,4.00
2022-10-29T04:10:11.445Z,3.70
2022-10-29T04:11:11.423Z,3.60
2022-10-29T04:12:11.455Z,4.60
2022-10-29T04:13:11.396Z,4.00
2022-10-29T04:14:11.418Z,4.40
2022-10-29T04:15:11.376Z,4.30
2022-10-29T04:16:11.324Z,4.50
2022-10-29T04:17:11.347Z,3.80
2022-10-29T04:18:11.327Z,4.80
2022-10-29T04:19:11.291Z,4.70
2022-10-29T04:20:21.187Z,4.20
2022-10-29T04:24:32.522Z,4.40
2022-10-29T04:29:20.075Z,4.10
2022-10-29T04:30:20.065Z,4.60
2022-10-29T04:31:20.065Z,3.90
2022-10-29T04:32:20.034Z,4.00
2022-10-29T04:33:20.029Z,3.80
2022-10-29T04:34:20.016Z,3.90
2022-10-29T04:35:19.996Z,4.20
2022-10-29T04:36:20.017Z,4.30
2022-10-29T04:37:19.972Z,4.10
2022-10-29T04:38:19.959Z,3.60
2022-10-29T04:39:22.560Z,4.50
2022-10-29T04:40:19.951Z,4.50
2022-10-29T04:41:19.922Z,4.70
2022-10-29T04:42:19.899Z,4.40
2022-10-29T04:43:19.909Z,4.00
2022-10-29T04:44:19.886Z,4.50
2022-10-29T04:45:19.887Z,4.60
2022-10-29T04:46:19.850Z,4.00
2022-10-29T04:47:19.838Z,3.90
2022-10-29T04:48:19.836Z,4.00
2022-10-29T04:49:19.885Z,4.70
2022-10-29T04:50:19.839Z,4.50
2022-10-29T04:51:19.777Z,4.40
2022-10-29T04:52:19.773Z,4.30
2022-10-29T04:53:19.770Z,4.30
2022-10-29T04:54:19.742Z,3.90
2022-10-29T04:55:19.726Z,4.80
2022-10-29T04:56:19.743Z,4.00
2022-10-29T04:57:19.710Z,4.00
2022-10-29T04:58:19.706Z,4.10
2022-10-29T04:59:19.677Z,4.00
2022-10-29T05:00:19.692Z,4.10
2022-10-29T05:01:19.993Z,4.20
2022-10-29T05:02:19.633Z,4.50
2022-10-29T05:03:19.638Z,4.40
2022-10-29T05:04:19.625Z,4.30
2022-10-29T05:05:19.638Z,4.30
2022-10-29T05:06:19.589Z,4.30
2022-10-29T05:07:19.588Z,4.90
2022-10-29T05:08:19.551Z,4.90
2022-10-29T05:09:19.569Z,4.60
2022-10-29T05:10:19.523Z,4.50
2022-10-29T05:11:19.509Z,4.40
2022-10-29T05:12:19.522Z,5.00
2022-10-29T05:13:19.500Z,4.80
2022-10-29T05:14:19.514Z,5.10
2022-10-29T05:15:19.451Z,4.40
2022-10-29T05:16:19.447Z,4.60
2022-10-29T05:17:19.438Z,4.80
2022-10-29T05:18:19.436Z,4.90
2022-10-29T05:19:19.429Z,5.00
2022-10-29T05:20:19.402Z,5.20
2022-10-29T05:21:19.375Z,5.30
2022-10-29T05:22:19.379Z,4.90
2022-10-29T05:23:19.378Z,4.90
2022-10-29T05:24:19.368Z,5.10
2022-10-29T05:25:19.340Z,4.40
2022-10-29T05:26:19.316Z,4.80
2022-10-29T05:27:19.312Z,4.40
2022-10-29T05:28:19.306Z,5.00
2022-10-29T05:29:19.270Z,4.10
2022-10-29T05:30:19.269Z,4.30
2022-10-29T05:31:19.265Z,4.60
2022-10-29T05:32:19.242Z,4.50
2022-10-29T05:33:19.245Z,4.30
2022-10-29T05:34:19.213Z,3.90
2022-10-29T05:35:19.205Z,4.20
2022-10-29T05:36:19.222Z,4.20
2022-10-29T05:37:19.168Z,3.80
2022-10-29T05:38:19.183Z,4.00
2022-10-29T05:39:19.143Z,4.10
2022-10-29T05:40:19.166Z,4.50
2022-10-29T05:41:19.130Z,4.50
2022-10-29T05:42:19.126Z,4.70
2022-10-29T05:43:19.114Z,4.50
2022-10-29T05:44:19.085Z,3.90
2022-10-29T05:45:19.096Z,4.60
2022-10-29T05:46:19.057Z,4.60
2022-10-29T05:47:19.028Z,4.30
2022-10-29T05:48:19.023Z,4.30
2022-10-29T05:49:19.036Z,4.80
2022-10-29T05:50:19.088Z,4.90
2022-10-29T05:51:18.992Z,4.60
2022-10-29T05:52:18.984Z,4.20
2022-10-29T05:53:18.947Z,4.20
2022-10-29T05:54:18.973Z,4.50
2022-10-29T05:55:18.937Z,3.80
2022-10-29T05:56:18.913Z,3.40
2022-10-29T05:57:18.955Z,4.10
2022-10-29T05:58:18.899Z,4.30
2022-10-29T05:59:18.877Z,4.00
2022-10-29T06:00:18.872Z,3.70
2022-10-29T06:01:18.884Z,4.00
2022-10-29T06:02:19.021Z,3.90
2022-10-29T06:03:18.818Z,4.20
2022-10-29T06:04:18.856Z,4.30
2022-10-29T06:05:18.835Z,4.00
2022-10-29T06:06:18.839Z,3.70
2022-10-29T06:07:18.778Z,3.90
2022-10-29T06:08:18.927Z,3.50
2022-10-29T06:09:18.742Z,3.70
2022-10-29T06:10:18.747Z,3.80
2022-10-29T06:11:18.736Z,3.70
2022-10-29T06:12:18.700Z,3.40
2022-10-29T06:13:18.741Z,4.10
2022-10-29T06:14:18.708Z,3.50
2022-10-29T06:15:18.690Z,3.70
2022-10-29T06:16:18.661Z,3.90
2022-10-29T06:17:18.645Z,4.00
2022-10-29T06:18:18.660Z,4.10
2022-10-29T06:19:18.639Z,4.10
2022-10-29T06:20:18.615Z,3.70
2022-10-29T06:21:18.584Z,3.60
2022-10-29T06:22:18.580Z,4.00
2022-10-29T06:23:18.604Z,4.10
2022-10-29T06:24:18.556Z,3.90
2022-10-29T06:25:18.531Z,4.60
2022-10-29T06:26:18.530Z,4.20
2022-10-29T06:27:18.527Z,5.10
2022-10-29T06:28:18.532Z,3.90
2022-10-29T06:29:18.487Z,4.70
2022-10-29T06:30:18.473Z,4.20
2022-10-29T06:31:18.470Z,4.10
2022-10-29T06:32:18.461Z,4.40
2022-10-29T06:33:18.440Z,4.10
2022-10-29T06:34:18.439Z,4.60
2022-10-29T06:35:18.435Z,4.70
2022-10-29T06:36:18.391Z,4.40
2022-10-29T06:37:18.390Z,4.50
2022-10-29T06:38:18.375Z,4.40
2022-10-29T06:39:18.371Z,4.50
2022-10-29T06:40:18.366Z,4.00
2022-10-29T06:41:18.324Z,4.10
2022-10-29T06:42:18.312Z,4.10
2022-10-29T06:43:18.318Z,4.80
2022-10-29T06:44:18.296Z,4.30
2022-10-29T06:45:18.302Z,4.60
2022-10-29T06:46:18.255Z,4.70
2022-10-29T06:47:18.249Z,4.70
2022-10-29T06:48:22.123Z,4.20
2022-10-29T06:49:18.217Z,4.30
2022-10-29T06:50:18.253Z,4.20
2022-10-29T06:51:18.235Z,4.10
2022-10-29T06:52:18.196Z,4.80
2022-10-29T06:53:18.174Z,5.00
2022-10-29T06:54:18.156Z,5.50
2022-10-29T06:55:18.155Z,5.80
2022-10-29T06:56:18.153Z,5.30
2022-10-29T06:57:18.120Z,5.30
2022-10-29T06:58:18.100Z,4.80
2022-10-29T06:59:18.081Z,5.20
2022-10-29T07:00:18.102Z,5.10
2022-10-29T07:01:18.097Z,5.50
2022-10-29T07:02:18.073Z,5.40
2022-10-29T07:03:18.043Z,5.70
2022-10-29T07:04:18.019Z,5.50
2022-10-29T07:05:18.032Z,6.20
2022-10-29T07:06:17.994Z,6.50
2022-10-29T07:07:18.064Z,6.70
2022-10-29T07:08:18.010Z,7.00
2022-10-29T07:09:17.961Z,8.60
2022-10-29T07:10:17.937Z,9.30
2022-10-29T07:11:17.934Z,9.60
2022-10-29T07:12:17.939Z,10.40
2022-10-29T07:13:17.931Z,9.70
2022-10-29T07:14:17.899Z,5.90
2022-10-29T07:15:17.880Z,7.30
2022-10-29T07:16:17.883Z,9.30
2022-10-29T07:17:17.859Z,8.50
2022-10-29T07:18:17.840Z,6.90
2022-10-29T07:19:17.838Z,7.00
2022-10-29T07:20:17.847Z,6.80
2022-10-29T07:21:17.845Z,8.30
2022-10-29T07:22:17.816Z,7.90
2022-10-29T07:23:17.806Z,7.00
2022-10-29T07:24:17.779Z,7.80
2022-10-29T07:25:17.745Z,7.40
2022-10-29T07:26:17.842Z,9.10
2022-10-29T07:27:17.758Z,9.00
2022-10-29T07:28:17.711Z,9.60
2022-10-29T07:29:17.694Z,9.40
2022-10-29T07:30:17.721Z,8.80
2022-10-29T07:31:17.701Z,8.40
2022-10-29T07:32:17.722Z,8.00
2022-10-29T07:33:17.660Z,7.70
2022-10-29T07:34:17.634Z,7.80
2022-10-29T07:35:17.603Z,8.20
2022-10-29T07:36:17.626Z,7.20
2022-10-29T07:37:17.602Z,6.80
2022-10-29T07:38:17.625Z,6.50
2022-10-29T07:39:17.619Z,6.30
2022-10-29T07:40:17.543Z,5.50
2022-10-29T07:41:17.544Z,6.50
2022-10-29T07:42:17.536Z,6.60
2022-10-29T07:43:17.521Z,6.40
2022-10-29T07:44:17.528Z,6.40
2022-10-29T07:45:17.481Z,6.60
2022-10-29T07:46:17.475Z,6.80
2022-10-29T07:47:17.480Z,6.40
2022-10-29T07:48:17.448Z,6.70
2022-10-29T07:49:17.428Z,6.40
2022-10-29T07:50:17.409Z,6.70
2022-10-29T07:51:17.396Z,7.10
2022-10-29T07:52:17.410Z,7.60
2022-10-29T07:53:17.391Z,8.20
2022-10-29T07:54:17.385Z,7.80
2022-10-29T07:55:17.386Z,7.60
2022-10-29T07:56:17.342Z,7.90
2022-10-29T07:57:17.376Z,7.60
2022-10-29T07:58:17.296Z,8.10
2022-10-29T07:59:17.324Z,8.00
2022-10-29T08:00:17.295Z,7.40
2022-10-29T08:01:17.549Z,7.10
2022-10-29T08:02:17.334Z,7.50
2022-10-29T08:03:17.248Z,7.40
2022-10-29T08:04:17.225Z,7.40
2022-10-29T08:05:17.225Z,7.50
2022-10-29T08:06:17.198Z,7.40
2022-10-29T08:07:17.224Z,7.40
2022-10-29T08:08:17.200Z,7.70
2022-10-29T08:09:17.182Z,7.60
2022-10-29T08:10:17.188Z,7.80
2022-10-29T08:11:17.148Z,7.40
2022-10-29T08:12:17.126Z,8.80
2022-10-29T08:13:17.129Z,9.30
2022-10-29T08:14:20.268Z,9.00
2022-10-29T08:15:17.099Z,9.90
2022-10-29T08:16:17.069Z,8.80
2022-10-29T08:17:17.049Z,8.50
2022-10-29T08:18:17.084Z,8.10
2022-10-29T08:19:17.034Z,8.40
2022-10-29T08:20:17.051Z,8.00
2022-10-29T08:21:17.004Z,9.10
2022-10-29T08:22:16.994Z,8.50
2022-10-29T08:23:17.017Z,8.30
2022-10-29T08:24:16.972Z,9.30
2022-10-29T08:25:16.971Z,9.40
2022-10-29T08:26:17.018Z,9.40
2022-10-29T08:27:16.953Z,9.00
2022-10-29T08:28:16.938Z,9.10
2022-10-29T08:29:16.924Z,10.10
2022-10-29T08:30:16.905Z,9.00
2022-10-29T08:31:16.909Z,9.90
2022-10-29T08:32:16.871Z,8.10
2022-10-29T08:33:16.865Z,8.50
2022-10-29T08:34:16.814Z,7.80
2022-10-29T08:35:16.856Z,7.70
2022-10-29T08:36:16.808Z,8.50
2022-10-29T08:37:16.806Z,8.70
2022-10-29T08:38:16.808Z,8.50
2022-10-29T08:39:16.800Z,8.40
2022-10-29T08:40:16.748Z,7.80
2022-10-29T08:41:16.744Z,7.60
2022-10-29T08:42:16.736Z,7.20
2022-10-29T08:43:16.785Z,7.50
2022-10-29T08:44:16.711Z,7.10
2022-10-29T08:45:16.711Z,6.70
2022-10-29T08:46:16.673Z,6.90
2022-10-29T08:47:16.669Z,6.90
2022-10-29T08:48:16.675Z,6.80
2022-10-29T08:49:16.648Z,7.00
2022-10-29T08:50:16.630Z,7.40
2022-10-29T08:51:16.622Z,7.10
2022-10-29T08:52:16.625Z,6.70
2022-10-29T08:53:23.338Z,6.80
2022-10-29T08:54:30.350Z,5.60
2022-10-29T08:55:16.571Z,5.30
2022-10-29T08:56:16.564Z,4.70
2022-10-29T08:57:16.567Z,4.80
2022-10-29T08:58:16.537Z,5.80
2022-10-29T08:59:16.509Z,5.50
2022-10-29T09:00:16.513Z,5.80
2022-10-29T09:01:16.688Z,5.90
2022-10-29T09:02:16.536Z,5.90
2022-10-29T09:03:16.479Z,6.20
2022-10-29T09:04:16.441Z,5.60
2022-10-29T09:05:16.433Z,5.30
2022-10-29T09:06:16.422Z,5.50
2022-10-29T09:07:16.436Z,5.10
2022-10-29T09:08:16.454Z,4.70
2022-10-29T09:09:16.387Z,4.80
2022-10-29T09:10:16.356Z,4.90
2022-10-29T09:11:16.362Z,5.90
2022-10-29T09:12:16.381Z,4.90
2022-10-29T09:13:16.341Z,4.90
2022-10-29T09:14:16.312Z,5.00
2022-10-29T09:15:16.294Z,4.70
2022-10-29T09:16:16.289Z,5.00
2022-10-29T09:17:16.262Z,4.60
2022-10-29T09:18:16.288Z,4.40
2022-10-29T09:19:16.260Z,4.60
2022-10-29T09:20:16.224Z,3.90
2022-10-29T09:21:16.208Z,4.40
2022-10-29T09:22:16.196Z,3.70
2022-10-29T09:23:16.224Z,4.40
2022-10-29T09:24:16.189Z,4.20
2022-10-29T09:25:16.161Z,4.40
2022-10-29T09:26:16.153Z,3.70
2022-10-29T09:27:16.143Z,4.10
2022-10-29T09:28:16.137Z,4.30
2022-10-29T09:29:16.132Z,3.70
2022-10-29T09:30:16.102Z,4.10
2022-10-29T09:31:16.078Z,4.20
2022-10-29T09:32:16.096Z,4.10
2022-10-29T09:33:16.072Z,3.80
2022-10-29T09:34:16.130Z,4.10
2022-10-29T09:35:16.057Z,5.60
2022-10-29T09:36:16.012Z,4.80
2022-10-29T09:37:16.024Z,7.40
2022-10-29T09:38:16.016Z,4.00
2022-10-29T09:39:16.012Z,4.50
2022-10-29T09:40:15.968Z,4.00
2022-10-29T09:41:15.956Z,4.60
2022-10-29T09:42:15.952Z,3.90
2022-10-29T09:43:15.992Z,4.10
2022-10-29T09:44:15.945Z,4.50
2022-10-29T09:45:15.907Z,5.80
2022-10-29T09:46:15.888Z,6.20
2022-10-29T09:47:15.891Z,6.00
2022-10-29T09:48:15.880Z,6.40
2022-10-29T09:49:15.855Z,5.30
2022-10-29T09:50:15.867Z,4.90
2022-10-29T09:51:15.824Z,4.40
2022-10-29T09:52:15.818Z,3.80
2022-10-29T09:53:15.951Z,4.00
2022-10-29T09:54:15.802Z,4.50
2022-10-29T09:55:15.778Z,3.70
2022-10-29T09:56:15.760Z,3.80
2022-10-29T09:57:15.772Z,4.10
2022-10-29T09:58:15.768Z,3.80
2022-10-29T09:59:15.727Z,4.20
2022-10-29T10:00:15.728Z,4.60
2022-10-29T10:01:15.763Z,4.10
2022-10-29T10:02:15.740Z,5.20
2022-10-29T10:03:15.708Z,4.30
2022-10-29T10:04:15.655Z,4.80
2022-10-29T10:05:15.688Z,4.60
2022-10-29T10:06:15.629Z,4.10
2022-10-29T10:07:15.662Z,4.20
2022-10-29T10:08:15.613Z,4.50
2022-10-29T10:09:15.635Z,4.50
2022-10-29T10:10:15.604Z,7.90
2022-10-29T10:11:15.584Z,4.70
2022-10-29T10:12:15.554Z,4.10
2022-10-29T10:13:17.199Z,4.50
2022-10-29T10:14:15.542Z,4.20
2022-10-29T10:15:15.556Z,4.30
2022-10-29T10:16:15.516Z,4.10
2022-10-29T10:17:15.530Z,4.10
2022-10-29T10:18:15.519Z,4.80
2022-10-29T10:19:15.471Z,4.70
2022-10-29T10:20:15.460Z,4.70
2022-10-29T10:21:15.461Z,4.60
2022-10-29T10:22:16.332Z,4.80
2022-10-29T10:23:15.446Z,4.40
2022-10-29T10:24:15.414Z,3.90
2022-10-29T10:25:15.468Z,4.60
2022-10-29T10:26:15.391Z,4.30
2022-10-29T10:27:15.386Z,4.40
2022-10-29T10:28:15.383Z,4.90
2022-10-29T10:29:15.342Z,4.70
2022-10-29T10:30:15.325Z,4.30
2022-10-29T10:31:15.317Z,4.40
2022-10-29T10:32:15.297Z,4.90
2022-10-29T10:33:15.353Z,4.80
2022-10-29T10:34:15.301Z,4.00
2022-10-29T10:35:15.281Z,4.60
2022-10-29T10:36:15.252Z,5.10
2022-10-29T10:37:15.235Z,5.40
2022-10-29T10:38:15.223Z,4.40
2022-10-29T10:39:15.238Z,4.30
2022-10-29T10:40:15.195Z,4.80
2022-10-29T10:41:15.188Z,4.40
2022-10-29T10:42:15.174Z,4.50
2022-10-29T10:43:15.158Z,4.60
2022-10-29T10:44:15.174Z,4.20
2022-10-29T10:45:15.161Z,5.10
2022-10-29T10:46:15.141Z,4.70
2022-10-29T10:47:15.134Z,4.40
2022-10-29T10:48:15.151Z,4.30
2022-10-29T10:49:15.083Z,5.30
2022-10-29T10:50:15.065Z,4.50
2022-10-29T10:51:15.056Z,4.00
2022-10-29T10:52:15.068Z,4.90
2022-10-29T10:53:15.042Z,4.90
2022-10-29T10:54:15.025Z,4.60
2022-10-29T10:55:15.013Z,4.60
2022-10-29T10:56:14.998Z,4.50
2022-10-29T10:57:14.993Z,4.40
2022-10-29T10:58:14.964Z,4.60
2022-10-29T10:59:14.989Z,4.50
2022-10-29T11:00:14.945Z,3.70
2022-10-29T11:01:15.103Z,3.90
2022-10-29T11:02:14.954Z,4.10
2022-10-29T11:03:14.983Z,3.70
2022-10-29T11:04:14.900Z,4.20
2022-10-29T11:05:14.895Z,4.20
2022-10-29T11:06:14.868Z,4.00
2022-10-29T11:07:14.853Z,4.60
2022-10-29T11:08:14.822Z,4.50
2022-10-29T11:09:14.844Z,4.20
2022-10-29T11:10:14.850Z,4.10
2022-10-29T11:11:14.794Z,4.00
2022-10-29T11:12:14.787Z,4.40
2022-10-29T11:13:14.771Z,4.60
2022-10-29T11:14:14.762Z,4.40
2022-10-29T11:15:14.763Z,3.80
2022-10-29T11:16:14.756Z,4.50
2022-10-29T11:17:14.725Z,4.20
2022-10-29T11:18:14.705Z,4.20
2022-10-29T11:19:14.699Z,4.50
2022-10-29T11:20:14.690Z,4.90
2022-10-29T11:21:14.732Z,4.20
2022-10-29T11:22:14.654Z,3.80
2022-10-29T11:23:14.644Z,4.20
2022-10-29T11:24:14.634Z,3.90
2022-10-29T11:25:14.631Z,3.70
2022-10-29T11:26:14.597Z,4.10
2022-10-29T11:27:14.622Z,4.90
2022-10-29T11:28:14.562Z,4.20
2022-10-29T11:29:14.582Z,4.20
2022-10-29T11:30:14.607Z,4.10
2022-10-29T11:31:14.544Z,3.70
2022-10-29T11:32:14.576Z,4.30
2022-10-29T11:34:14.501Z,3.90
2022-10-29T11:35:14.556Z,3.80
2022-10-29T11:36:14.477Z,3.60
2022-10-29T11:37:14.488Z,4.20
2022-10-29T11:38:14.463Z,4.50
2022-10-29T11:39:14.425Z,5.00
2022-10-29T11:40:14.557Z,4.90
2022-10-29T11:41:14.416Z,3.90
2022-10-29T11:42:14.416Z,4.40
2022-10-29T11:43:14.412Z,4.50
2022-10-29T11:44:14.367Z,4.30
2022-10-29T11:45:14.990Z,4.60
2022-10-29T11:46:14.355Z,3.90
2022-10-29T11:47:14.356Z,4.20
2022-10-29T11:48:19.026Z,4.80
2022-10-29T11:49:14.325Z,3.90
2022-10-29T11:50:14.340Z,4.80
2022-10-29T11:51:14.287Z,4.40
2022-10-29T11:52:14.273Z,4.20
2022-10-29T11:53:14.255Z,4.50
2022-10-29T11:54:14.232Z,4.90
2022-10-29T11:55:14.295Z,4.40
2022-10-29T11:56:14.238Z,4.20
2022-10-29T11:57:14.209Z,4.50
2022-10-29T11:58:14.193Z,3.80
2022-10-29T11:59:14.167Z,4.50
2022-10-29T12:00:14.148Z,4.30
2022-10-29T12:01:14.225Z,4.10
2022-10-29T12:02:14.136Z,4.20
2022-10-29T12:03:14.149Z,4.40
2022-10-29T12:04:15.802Z,4.20
2022-10-29T12:05:14.145Z,4.10
2022-10-29T12:06:14.107Z,4.10
2022-10-29T12:07:14.094Z,4.40
2022-10-29T12:08:14.086Z,4.50
2022-10-29T12:09:14.050Z,4.40
2022-10-29T12:10:14.045Z,4.40
2022-10-29T12:11:14.064Z,4.70
2022-10-29T12:12:14.083Z,4.50
2022-10-29T12:13:13.986Z,4.90
2022-10-29T12:14:13.997Z,4.50
2022-10-29T12:15:13.974Z,4.40
2022-10-29T12:16:13.959Z,4.50
2022-10-29T12:17:13.980Z,4.50
2022-10-29T12:18:14.021Z,4.10
2022-10-29T12:19:13.940Z,4.50
2022-10-29T12:20:13.903Z,4.50
2022-10-29T12:21:13.890Z,4.60
2022-10-29T12:22:13.873Z,4.40
2022-10-29T12:23:15.615Z,4.80
2022-10-29T12:24:13.873Z,4.40
2022-10-29T12:25:13.855Z,4.00
2022-10-29T12:26:13.821Z,4.10
2022-10-29T12:27:13.816Z,4.20
2022-10-29T12:28:13.823Z,4.30
2022-10-29T12:29:13.806Z,4.30
2022-10-29T12:30:13.767Z,4.40
2022-10-29T12:31:13.764Z,4.40
2022-10-29T12:32:13.749Z,5.00
2022-10-29T12:33:13.739Z,4.20
2022-10-29T12:34:13.743Z,4.60
2022-10-29T12:35:13.755Z,4.50
2022-10-29T12:36:13.700Z,4.40
2022-10-29T12:37:13.693Z,4.40
2022-10-29T12:38:13.658Z,4.90
2022-10-29T12:39:13.662Z,4.20
2022-10-29T12:40:13.685Z,4.30
2022-10-29T12:41:13.634Z,4.00
2022-10-29T12:42:13.652Z,4.40
2022-10-29T12:43:13.633Z,4.20
2022-10-29T12:44:13.599Z,4.90
2022-10-29T12:45:13.583Z,4.30
2022-10-29T12:46:19.990Z,4.10
2022-10-29T12:47:13.583Z,4.20
2022-10-29T12:48:13.572Z,4.20
2022-10-29T12:49:13.581Z,4.10
2022-10-29T12:50:13.520Z,3.80
2022-10-29T12:51:13.491Z,3.80
2022-10-29T12:52:13.531Z,3.80
2022-10-29T12:53:13.482Z,5.20
2022-10-29T12:54:13.478Z,4.30
2022-10-29T12:55:13.476Z,4.00
2022-10-29T12:56:16.329Z,3.80
2022-10-29T12:57:13.469Z,4.50
2022-10-29T12:58:13.407Z,3.90
2022-10-29T12:59:13.393Z,4.30
2022-10-29T13:00:13.385Z,4.60
2022-10-29T13:01:13.478Z,4.10
2022-10-29T13:02:13.583Z,4.30
2022-10-29T13:03:13.459Z,4.30
2022-10-29T13:04:13.331Z,4.50
2022-10-29T13:05:13.331Z,4.10
2022-10-29T13:06:13.320Z,4.40
2022-10-29T13:07:13.482Z,4.20
2022-10-29T13:08:13.305Z,4.90
2022-10-29T13:09:13.260Z,3.90
2022-10-29T13:10:13.260Z,4.30
2022-10-29T13:11:13.244Z,5.00
2022-10-29T13:12:13.221Z,4.30
2022-10-29T13:13:13.235Z,4.40
2022-10-29T13:14:13.206Z,4.50
2022-10-29T13:15:13.192Z,4.70
2022-10-29T13:16:13.210Z,4.10
2022-10-29T13:17:13.182Z,4.10
2022-10-29T13:18:13.179Z,4.40
2022-10-29T13:19:13.180Z,4.00
2022-10-29T13:20:13.134Z,4.40
2022-10-29T13:21:13.131Z,4.00
2022-10-29T13:22:13.147Z,4.60
2022-10-29T13:23:13.105Z,4.40
2022-10-29T13:24:13.085Z,4.00
2022-10-29T13:25:13.100Z,4.20
2022-10-29T13:26:13.052Z,4.80